< Typhoon 199904 1999 Season Typhoon 199906 >
Typhoon 199905 (NEIL)
General InformationTrack Information on Google MapsDetailed Wind InformationList of All Images || Disaster Info.ResourceGoogle EarthGE AnimationAtom FeedGeoJSON
Detalied Best Track (Time Zone = UTC)
Year Month Day Hour Lat. Long. Pressure (hPa) Wind (kt) Class Image Chart
1999 7 22 06 17.4 128.8 996 0 2 Image Chart
1999 7 22 12 17.6 128.0 996 0 2 Image Chart
1999 7 22 18 17.0 126.5 996 0 2 Image Chart
1999 7 23 00 17.0 125.8 996 0 2 Image Chart
1999 7 23 06 17.3 125.0 994 0 2 Image Chart
1999 7 23 12 17.4 124.6 994 0 2 Image Chart
1999 7 23 18 17.7 124.3 994 0 2 Image Chart
1999 7 24 00 18.2 124.0 996 0 2 Image Chart
1999 7 24 06 18.9 123.9 996 0 2 Image Chart
1999 7 24 12 19.7 124.8 996 0 2 Image Chart
1999 7 24 18 20.7 125.7 994 0 2 Image Chart
1999 7 25 00 22.1 127.1 992 0 2 Image Chart
1999 7 25 06 22.9 127.6 990 40 3 Image Chart
1999 7 25 12 24.0 128.5 985 40 3 Image Chart
1999 7 25 18 26.3 129.2 980 50 4 Image Chart
1999 7 26 00 27.9 129.2 980 50 4 Image Chart
1999 7 26 03 28.5 129.1 980 50 4 Image Chart
1999 7 26 06 29.2 129.0 980 50 4 Image Chart
1999 7 26 09 30.0 129.0 980 50 4 Image Chart
1999 7 26 12 30.8 129.0 980 50 4 Image Chart
1999 7 26 15 31.5 128.6 980 50 4 Image Chart
1999 7 26 18 31.9 128.1 980 50 4 Image Chart
1999 7 26 21 32.5 127.5 980 50 4 Image Chart
1999 7 27 00 33.2 127.2 985 45 3 Image Chart
1999 7 27 03 33.9 126.8 985 45 3 Image Chart
1999 7 27 06 34.1 126.5 985 45 3 Image Chart
1999 7 27 12 35.0 126.0 990 40 3 Image Chart
1999 7 27 18 35.7 126.1 990 0 2 Image Chart
1999 7 28 00 36.8 126.4 996 0 2 Image Chart
1999 7 28 06 37.3 126.6 998 0 2 Image Chart
1999 7 28 12 37.9 126.2 1000 0 2 Image Chart
Japan Meteorological Agency Best Track Data | Correction Date : 2005-03-01
< Typhoon 199904 1999 Season Typhoon 199906 >

Help